sensor_id;sensor_type;location;lat;lon;timestamp;pressure;altitude;pressure_sealevel;temperature;humidity
69245;BME280;56357;52.304;4.870;2023-08-08T00:01:02;101630.16;;;20.20;59.48
69245;BME280;56357;52.304;4.870;2023-08-08T00:03:29;101632.09;;;20.14;59.79
69245;BME280;56357;52.304;4.870;2023-08-08T00:05:55;101636.03;;;20.13;59.99
69245;BME280;56357;52.304;4.870;2023-08-08T00:08:22;101633.78;;;20.15;60.11
69245;BME280;56357;52.304;4.870;2023-08-08T00:10:48;101630.69;;;20.17;59.69
69245;BME280;56357;52.304;4.870;2023-08-08T00:13:15;101631.81;;;20.16;60.02
69245;BME280;56357;52.304;4.870;2023-08-08T00:15:41;101628.41;;;20.08;59.99
69245;BME280;56357;52.304;4.870;2023-08-08T00:18:08;101615.22;;;20.14;59.80
69245;BME280;56357;52.304;4.870;2023-08-08T00:20:35;101605.66;;;20.15;59.92
69245;BME280;56357;52.304;4.870;2023-08-08T00:23:01;101611.53;;;20.14;59.85
69245;BME280;56357;52.304;4.870;2023-08-08T00:25:28;101605.09;;;20.13;60.08
69245;BME280;56357;52.304;4.870;2023-08-08T00:27:54;101601.16;;;20.14;59.95
69245;BME280;56357;52.304;4.870;2023-08-08T00:30:21;101610.44;;;20.15;59.76
69245;BME280;56357;52.304;4.870;2023-08-08T00:32:47;101609.31;;;20.11;60.14
69245;BME280;56357;52.304;4.870;2023-08-08T00:35:14;101616.59;;;20.12;60.11
69245;BME280;56357;52.304;4.870;2023-08-08T00:37:40;101605.91;;;20.14;59.88
69245;BME280;56357;52.304;4.870;2023-08-08T00:40:07;101611.53;;;20.14;59.98
69245;BME280;56357;52.304;4.870;2023-08-08T00:42:34;101611.00;;;20.17;59.77
69245;BME280;56357;52.304;4.870;2023-08-08T00:45:00;101607.63;;;20.15;59.77
69245;BME280;56357;52.304;4.870;2023-08-08T00:47:31;101605.38;;;20.17;59.46
69245;BME280;56357;52.304;4.870;2023-08-08T00:49:58;101609.31;;;20.16;59.46
69245;BME280;56357;52.304;4.870;2023-08-08T00:52:25;101609.59;;;20.14;59.87
69245;BME280;56357;52.304;4.870;2023-08-08T00:54:52;101604.81;;;20.15;59.59
69245;BME280;56357;52.304;4.870;2023-08-08T00:57:19;101605.09;;;20.13;59.37
69245;BME280;56357;52.304;4.870;2023-08-08T00:59:45;101612.69;;;20.13;59.34
69245;BME280;56357;52.304;4.870;2023-08-08T01:02:12;101607.06;;;20.13;59.28
69245;BME280;56357;52.304;4.870;2023-08-08T01:04:39;101602.31;;;20.18;59.21
69245;BME280;56357;52.304;4.870;2023-08-08T01:07:15;101605.38;;;20.17;59.12
69245;BME280;56357;52.304;4.870;2023-08-08T01:10:28;101603.41;;;20.17;58.99
69245;BME280;56357;52.304;4.870;2023-08-08T01:12:40;101599.72;;;20.12;59.07
69245;BME280;56357;52.304;4.870;2023-08-08T01:15:07;101603.09;;;20.14;58.85
69245;BME280;56357;52.304;4.870;2023-08-08T01:17:35;101609.66;;;20.24;58.78
69245;BME280;56357;52.304;4.870;2023-08-08T01:20:04;101606.22;;;20.17;58.56
69245;BME280;56357;52.304;4.870;2023-08-08T01:22:45;101586.81;;;20.16;58.55
69245;BME280;56357;52.304;4.870;2023-08-08T01:25:14;101596.94;;;20.17;58.58
69245;BME280;56357;52.304;4.870;2023-08-08T01:27:41;101602.91;;;20.20;58.45
69245;BME280;56357;52.304;4.870;2023-08-08T01:30:09;101604.56;;;20.21;58.36
69245;BME280;56357;52.304;4.870;2023-08-08T01:32:36;101595.56;;;20.19;58.28
69245;BME280;56357;52.304;4.870;2023-08-08T01:35:03;101591.03;;;20.13;58.34
69245;BME280;56357;52.304;4.870;2023-08-08T01:37:36;101598.91;;;20.16;58.05
69245;BME280;56357;52.304;4.870;2023-08-08T01:40:06;101593.00;;;20.13;58.05
69245;BME280;56357;52.304;4.870;2023-08-08T01:42:33;101595.03;;;20.22;57.65
69245;BME280;56357;52.304;4.870;2023-08-08T01:45:00;101593.59;;;20.20;58.09
69245;BME280;56357;52.304;4.870;2023-08-08T01:47:27;101585.09;;;20.09;57.95
69245;BME280;56357;52.304;4.870;2023-08-08T01:49:54;101586.81;;;20.11;58.17
69245;BME280;56357;52.304;4.870;2023-08-08T01:52:20;101580.03;;;20.12;58.01
69245;BME280;56357;52.304;4.870;2023-08-08T01:54:48;101577.22;;;20.12;57.88
69245;BME280;56357;52.304;4.870;2023-08-08T01:57:14;101575.56;;;20.11;57.78
69245;BME280;56357;52.304;4.870;2023-08-08T01:59:41;101574.69;;;20.10;58.00
69245;BME280;56357;52.304;4.870;2023-08-08T02:02:07;101565.69;;;20.08;57.83
69245;BME280;56357;52.304;4.870;2023-08-08T02:04:34;101576.09;;;20.07;57.75
69245;BME280;56357;52.304;4.870;2023-08-08T02:07:00;101571.88;;;20.05;58.08
69245;BME280;56357;52.304;4.870;2023-08-08T02:09:27;101569.34;;;20.03;57.72
69245;BME280;56357;52.304;4.870;2023-08-08T02:11:53;101567.13;;;20.05;57.90
69245;BME280;56357;52.304;4.870;2023-08-08T02:14:20;101569.34;;;20.03;57.79
69245;BME280;56357;52.304;4.870;2023-08-08T02:16:46;101565.97;;;20.01;57.93
69245;BME280;56357;52.304;4.870;2023-08-08T02:19:13;101555.28;;;20.03;57.80
69245;BME280;56357;52.304;4.870;2023-08-08T02:21:39;101561.50;;;20.05;57.93
69245;BME280;56357;52.304;4.870;2023-08-08T02:24:06;101565.13;;;20.01;58.14
69245;BME280;56357;52.304;4.870;2023-08-08T02:26:33;101563.97;;;20.02;57.81
69245;BME280;56357;52.304;4.870;2023-08-08T02:29:00;101563.97;;;20.02;57.89
69245;BME280;56357;52.304;4.870;2023-08-08T02:31:26;101562.88;;;20.03;57.83
69245;BME280;56357;52.304;4.870;2023-08-08T02:33:53;101560.34;;;20.01;57.78
69245;BME280;56357;52.304;4.870;2023-08-08T02:36:20;101565.97;;;20.01;57.69
69245;BME280;56357;52.304;4.870;2023-08-08T02:38:46;101560.88;;;19.98;57.79
69245;BME280;56357;52.304;4.870;2023-08-08T02:41:15;101565.41;;;19.99;57.70
69245;BME280;56357;52.304;4.870;2023-08-08T02:43:41;101555.84;;;20.00;57.88
69245;BME280;56357;52.304;4.870;2023-08-08T02:46:08;101547.16;;;20.12;57.66
69245;BME280;56357;52.304;4.870;2023-08-08T02:48:34;101557.56;;;20.17;57.21
69245;BME280;56357;52.304;4.870;2023-08-08T02:51:00;101558.09;;;20.03;57.53
69245;BME280;56357;52.304;4.870;2023-08-08T02:53:27;101560.91;;;20.08;57.51
69245;BME280;56357;52.304;4.870;2023-08-08T02:55:53;101551.38;;;20.15;57.32
69245;BME280;56357;52.304;4.870;2023-08-08T02:58:20;101542.34;;;20.07;57.35
69245;BME280;56357;52.304;4.870;2023-08-08T03:00:46;101549.13;;;20.17;57.14
69245;BME280;56357;52.304;4.870;2023-08-08T03:03:13;101545.16;;;20.07;57.39
69245;BME280;56357;52.304;4.870;2023-08-08T03:05:40;101545.16;;;20.02;57.04
69245;BME280;56357;52.304;4.870;2023-08-08T03:08:06;101537.84;;;20.01;57.34
69245;BME280;56357;52.304;4.870;2023-08-08T03:10:33;101537.28;;;20.04;57.81
69245;BME280;56357;52.304;4.870;2023-08-08T03:12:59;101538.69;;;19.97;57.40
69245;BME280;56357;52.304;4.870;2023-08-08T03:15:26;101537.53;;;19.98;57.41
69245;BME280;56357;52.304;4.870;2023-08-08T03:17:52;101543.44;;;19.91;57.39
69245;BME280;56357;52.304;4.870;2023-08-08T03:20:19;101540.06;;;19.89;57.54
69245;BME280;56357;52.304;4.870;2023-08-08T03:22:45;101533.31;;;19.90;57.26
69245;BME280;56357;52.304;4.870;2023-08-08T03:25:12;101527.97;;;19.84;57.69
69245;BME280;56357;52.304;4.870;2023-08-08T03:27:38;101526.53;;;19.86;57.83
69245;BME280;56357;52.304;4.870;2023-08-08T03:30:04;101530.78;;;19.89;57.33
69245;BME280;56357;52.304;4.870;2023-08-08T03:32:31;101524.84;;;19.80;57.44
69245;BME280;56357;52.304;4.870;2023-08-08T03:34:58;101527.09;;;19.78;57.63
69245;BME280;56357;52.304;4.870;2023-08-08T03:37:24;101533.53;;;19.79;57.39
69245;BME280;56357;52.304;4.870;2023-08-08T03:39:51;101527.91;;;19.79;57.52
69245;BME280;56357;52.304;4.870;2023-08-08T03:42:17;101527.66;;;19.80;57.47
69245;BME280;56357;52.304;4.870;2023-08-08T03:44:44;101521.16;;;19.75;57.38
69245;BME280;56357;52.304;4.870;2023-08-08T03:47:10;101523.44;;;19.73;57.50
69245;BME280;56357;52.304;4.870;2023-08-08T03:49:37;101520.06;;;19.76;57.33
69245;BME280;56357;52.304;4.870;2023-08-08T03:52:03;101513.59;;;19.75;57.11
69245;BME280;56357;52.304;4.870;2023-08-08T03:54:30;101514.16;;;19.72;57.62
69245;BME280;56357;52.304;4.870;2023-08-08T03:56:57;101515.81;;;19.73;57.49
69245;BME280;56357;52.304;4.870;2023-08-08T03:59:23;101509.09;;;19.84;57.74
69245;BME280;56357;52.304;4.870;2023-08-08T04:01:49;101509.66;;;19.81;56.89
69245;BME280;56357;52.304;4.870;2023-08-08T04:04:16;101506.03;;;19.91;56.89
69245;BME280;56357;52.304;4.870;2023-08-08T04:06:42;101502.63;;;19.74;57.45
69245;BME280;56357;52.304;4.870;2023-08-08T04:09:09;101509.91;;;19.70;57.09
69245;BME280;56357;52.304;4.870;2023-08-08T04:11:36;101506.00;;;19.71;57.29
69245;BME280;56357;52.304;4.870;2023-08-08T04:14:02;101504.28;;;19.70;57.70
69245;BME280;56357;52.304;4.870;2023-08-08T04:16:29;101511.88;;;19.69;57.05
69245;BME280;56357;52.304;4.870;2023-08-08T04:18:55;101508.25;;;19.69;57.32
69245;BME280;56357;52.304;4.870;2023-08-08T04:21:22;101509.06;;;19.64;57.10
69245;BME280;56357;52.304;4.870;2023-08-08T04:23:50;101511.00;;;19.64;57.27
69245;BME280;56357;52.304;4.870;2023-08-08T04:26:16;101504.00;;;19.61;57.23
69245;BME280;56357;52.304;4.870;2023-08-08T04:28:43;101507.66;;;19.72;57.63
69245;BME280;56357;52.304;4.870;2023-08-08T04:31:09;101503.47;;;19.74;57.10
69245;BME280;56357;52.304;4.870;2023-08-08T04:33:36;101499.00;;;19.78;57.44
69245;BME280;56357;52.304;4.870;2023-08-08T04:36:02;101507.44;;;19.78;56.89
69245;BME280;56357;52.304;4.870;2023-08-08T04:38:29;101509.06;;;19.69;57.13
69245;BME280;56357;52.304;4.870;2023-08-08T04:40:55;101510.19;;;19.68;57.14
69245;BME280;56357;52.304;4.870;2023-08-08T04:43:22;101511.28;;;19.67;57.32
69245;BME280;56357;52.304;4.870;2023-08-08T04:45:49;101520.84;;;19.61;57.58
69245;BME280;56357;52.304;4.870;2023-08-08T04:48:15;101521.41;;;19.63;57.42
69245;BME280;56357;52.304;4.870;2023-08-08T04:50:42;101516.34;;;19.55;57.71
69245;BME280;56357;52.304;4.870;2023-08-08T04:53:08;101524.78;;;19.65;57.33
69245;BME280;56357;52.304;4.870;2023-08-08T04:55:34;101520.28;;;19.64;57.28
69245;BME280;56357;52.304;4.870;2023-08-08T04:58:01;101518.00;;;19.56;57.37
69245;BME280;56357;52.304;4.870;2023-08-08T05:00:28;101518.59;;;19.63;57.61
69245;BME280;56357;52.304;4.870;2023-08-08T05:02:54;101516.66;;;19.69;57.60
69245;BME280;56357;52.304;4.870;2023-08-08T05:05:21;101514.69;;;19.69;57.09
69245;BME280;56357;52.304;4.870;2023-08-08T05:07:47;101518.09;;;19.81;57.23
69245;BME280;56357;52.304;4.870;2023-08-08T05:10:14;101515.84;;;19.78;56.77
69245;BME280;56357;52.304;4.870;2023-08-08T05:12:41;101512.72;;;19.75;57.32
69245;BME280;56357;52.304;4.870;2023-08-08T05:15:08;101516.97;;;19.72;57.16
69245;BME280;56357;52.304;4.870;2023-08-08T05:17:34;101510.75;;;19.70;56.88
69245;BME280;56357;52.304;4.870;2023-08-08T05:20:00;101513.63;;;19.80;56.82
69245;BME280;56357;52.304;4.870;2023-08-08T05:22:27;101510.25;;;19.78;56.45
69245;BME280;56357;52.304;4.870;2023-08-08T05:24:54;101515.25;;;19.71;57.12
69245;BME280;56357;52.304;4.870;2023-08-08T05:27:20;101510.25;;;19.83;56.77
69245;BME280;56357;52.304;4.870;2023-08-08T05:29:46;101519.38;;;20.26;55.87
69245;BME280;56357;52.304;4.870;2023-08-08T05:32:13;101512.06;;;20.35;55.26
69245;BME280;56357;52.304;4.870;2023-08-08T05:34:39;101525.84;;;20.41;54.63
69245;BME280;56357;52.304;4.870;2023-08-08T05:37:06;101523.06;;;20.51;54.74
69245;BME280;56357;52.304;4.870;2023-08-08T05:39:33;101508.97;;;20.66;53.75
69245;BME280;56357;52.304;4.870;2023-08-08T05:41:59;101517.69;;;20.60;54.29
69245;BME280;56357;52.304;4.870;2023-08-08T05:44:26;101520.78;;;20.33;54.91
69245;BME280;56357;52.304;4.870;2023-08-08T05:46:52;101524.41;;;20.24;55.65
69245;BME280;56357;52.304;4.870;2023-08-08T05:49:19;101523.56;;;20.23;55.25
69245;BME280;56357;52.304;4.870;2023-08-08T05:51:45;101527.75;;;20.16;55.57
69245;BME280;56357;52.304;4.870;2023-08-08T05:54:12;101515.41;;;20.22;55.43
69245;BME280;56357;52.304;4.870;2023-08-08T05:56:38;101527.47;;;20.17;55.35
69245;BME280;56357;52.304;4.870;2023-08-08T05:59:05;101528.31;;;20.13;55.76
69245;BME280;56357;52.304;4.870;2023-08-08T06:01:31;101529.41;;;20.12;55.79
69245;BME280;56357;52.304;4.870;2023-08-08T06:03:59;101529.72;;;20.15;55.49
69245;BME280;56357;52.304;4.870;2023-08-08T06:06:26;101527.75;;;20.16;55.56
69245;BME280;56357;52.304;4.870;2023-08-08T06:08:52;101526.38;;;20.18;55.58
69245;BME280;56357;52.304;4.870;2023-08-08T06:11:19;101525.00;;;20.26;55.35
69245;BME280;56357;52.304;4.870;2023-08-08T06:13:46;101532.84;;;20.24;55.42
69245;BME280;56357;52.304;4.870;2023-08-08T06:16:14;101529.78;;;20.30;55.29
69245;BME280;56357;52.304;4.870;2023-08-08T06:18:41;101525.59;;;20.48;55.08
69245;BME280;56357;52.304;4.870;2023-08-08T06:21:07;101534.56;;;20.45;55.46
69245;BME280;56357;52.304;4.870;2023-08-08T06:23:34;101530.94;;;20.59;54.78
69245;BME280;56357;52.304;4.870;2023-08-08T06:26:00;101531.78;;;20.55;55.26
69245;BME280;56357;52.304;4.870;2023-08-08T06:28:27;101523.59;;;20.63;54.32
69245;BME280;56357;52.304;4.870;2023-08-08T06:30:56;101539.38;;;20.69;54.03
69245;BME280;56357;52.304;4.870;2023-08-08T06:33:22;101532.31;;;20.92;53.25
69245;BME280;56357;52.304;4.870;2023-08-08T06:35:50;101534.28;;;20.91;53.96
69245;BME280;56357;52.304;4.870;2023-08-08T06:38:16;101519.66;;;21.05;53.17
69245;BME280;56357;52.304;4.870;2023-08-08T06:40:43;101518.50;;;21.16;52.94
69245;BME280;56357;52.304;4.870;2023-08-08T06:43:09;101526.94;;;21.16;53.13
69245;BME280;56357;52.304;4.870;2023-08-08T06:45:36;101526.06;;;21.35;52.54
69245;BME280;56357;52.304;4.870;2023-08-08T06:48:03;101524.97;;;21.21;52.76
69245;BME280;56357;52.304;4.870;2023-08-08T06:50:29;101535.59;;;21.44;52.31
69245;BME280;56357;52.304;4.870;2023-08-08T06:52:56;101530.47;;;21.61;52.35
69245;BME280;56357;52.304;4.870;2023-08-08T06:55:22;101529.38;;;21.52;52.53
69245;BME280;56357;52.304;4.870;2023-08-08T06:57:49;101524.69;;;21.28;53.12
69245;BME280;56357;52.304;4.870;2023-08-08T07:00:15;101525.47;;;21.38;52.59
69245;BME280;56357;52.304;4.870;2023-08-08T07:02:42;101521.31;;;21.26;53.35
69245;BME280;56357;52.304;4.870;2023-08-08T07:05:08;101521.03;;;21.22;53.57
69245;BME280;56357;52.304;4.870;2023-08-08T07:07:35;101527.81;;;21.16;53.59
69245;BME280;56357;52.304;4.870;2023-08-08T07:10:03;101531.66;;;21.40;52.87
69245;BME280;56357;52.304;4.870;2023-08-08T07:12:31;101533.13;;;21.28;53.40
69245;BME280;56357;52.304;4.870;2023-08-08T07:14:57;101529.72;;;21.36;53.62
69245;BME280;56357;52.304;4.870;2023-08-08T07:17:24;101525.13;;;21.65;52.25
69245;BME280;56357;52.304;4.870;2023-08-08T07:19:50;101532.19;;;21.52;52.75
69245;BME280;56357;52.304;4.870;2023-08-08T07:22:17;101532.19;;;21.52;53.97
69245;BME280;56357;52.304;4.870;2023-08-08T07:24:43;101532.56;;;21.36;53.96
69245;BME280;56357;52.304;4.870;2023-08-08T07:27:10;101528.59;;;21.42;53.82
69245;BME280;56357;52.304;4.870;2023-08-08T07:29:36;101522.00;;;21.66;53.18
69245;BME280;56357;52.304;4.870;2023-08-08T07:32:03;101515.19;;;21.82;52.76
69245;BME280;56357;52.304;4.870;2023-08-08T07:34:30;101512.00;;;21.94;51.92
69245;BME280;56357;52.304;4.870;2023-08-08T07:36:57;101522.19;;;21.90;52.71
69245;BME280;56357;52.304;4.870;2023-08-08T07:39:24;101520.25;;;21.75;53.36
69245;BME280;56357;52.304;4.870;2023-08-08T07:41:50;101523.63;;;21.88;52.43
69245;BME280;56357;52.304;4.870;2023-08-08T07:44:17;101516.84;;;21.94;52.54
69245;BME280;56357;52.304;4.870;2023-08-08T07:46:44;101508.69;;;21.77;52.95
69245;BME280;56357;52.304;4.870;2023-08-08T07:49:10;101510.09;;;21.90;52.82
69245;BME280;56357;52.304;4.870;2023-08-08T07:51:37;101501.97;;;22.22;52.92
69245;BME280;56357;52.304;4.870;2023-08-08T07:54:03;101514.13;;;22.17;52.21
69245;BME280;56357;52.304;4.870;2023-08-08T07:56:33;101522.53;;;22.27;52.58
69245;BME280;56357;52.304;4.870;2023-08-08T07:59:00;101511.56;;;22.21;51.99
69245;BME280;56357;52.304;4.870;2023-08-08T08:01:28;101512.66;;;22.30;51.90
69245;BME280;56357;52.304;4.870;2023-08-08T08:03:54;101511.00;;;22.24;52.75
69245;BME280;56357;52.304;4.870;2023-08-08T08:06:21;101516.31;;;22.30;52.02
69245;BME280;56357;52.304;4.870;2023-08-08T08:08:48;101520.31;;;22.19;52.27
69245;BME280;56357;52.304;4.870;2023-08-08T08:11:14;101511.91;;;22.14;52.63
69245;BME280;56357;52.304;4.870;2023-08-08T08:13:41;101507.69;;;22.12;53.22
69245;BME280;56357;52.304;4.870;2023-08-08T08:16:08;101515.13;;;21.93;52.34
69245;BME280;56357;52.304;4.870;2023-08-08T08:18:34;101512.00;;;21.94;53.74
69245;BME280;56357;52.304;4.870;2023-08-08T08:21:01;101512.31;;;21.98;52.79
69245;BME280;56357;52.304;4.870;2023-08-08T08:23:28;101514.81;;;21.99;53.51
69245;BME280;56357;52.304;4.870;2023-08-08T08:25:56;101509.38;;;22.13;52.79
69245;BME280;56357;52.304;4.870;2023-08-08T08:28:23;101518.03;;;22.26;52.72
69245;BME280;56357;52.304;4.870;2023-08-08T08:30:49;101521.53;;;22.08;52.87
69245;BME280;56357;52.304;4.870;2023-08-08T08:33:16;101508.84;;;22.06;52.74
69245;BME280;56357;52.304;4.870;2023-08-08T08:35:42;101521.19;;;22.20;52.21
69245;BME280;56357;52.304;4.870;2023-08-08T08:38:10;101512.16;;;22.18;52.55
69245;BME280;56357;52.304;4.870;2023-08-08T08:40:38;101512.47;;;22.11;51.81
69245;BME280;56357;52.304;4.870;2023-08-08T08:43:07;101503.81;;;22.36;51.66
69245;BME280;56357;52.304;4.870;2023-08-08T08:45:37;101518.09;;;22.55;51.97
69245;BME280;56357;52.304;4.870;2023-08-08T08:48:09;101514.56;;;22.73;50.69
69245;BME280;56357;52.304;4.870;2023-08-08T08:50:38;101516.59;;;22.67;51.03
69245;BME280;56357;52.304;4.870;2023-08-08T08:53:05;101520.38;;;22.53;50.79
69245;BME280;56357;52.304;4.870;2023-08-08T08:55:32;101522.84;;;22.21;51.99
69245;BME280;56357;52.304;4.870;2023-08-08T08:57:58;101520.56;;;22.23;52.77
69245;BME280;56357;52.304;4.870;2023-08-08T09:00:25;101521.22;;;22.10;52.78
69245;BME280;56357;52.304;4.870;2023-08-08T09:02:52;101533.38;;;22.49;51.64
69245;BME280;56357;52.304;4.870;2023-08-08T09:05:20;101534.69;;;22.23;52.65
69245;BME280;56357;52.304;4.870;2023-08-08T09:07:48;101539.16;;;22.34;52.86
69245;BME280;56357;52.304;4.870;2023-08-08T09:10:17;101532.03;;;22.80;52.36
69245;BME280;56357;52.304;4.870;2023-08-08T09:12:44;101527.22;;;25.10;46.86
69245;BME280;56357;52.304;4.870;2023-08-08T09:15:12;101528.09;;;24.60;47.50
69245;BME280;56357;52.304;4.870;2023-08-08T09:17:42;101522.91;;;24.30;48.92
69245;BME280;56357;52.304;4.870;2023-08-08T09:20:11;101526.34;;;23.85;49.94
69245;BME280;56357;52.304;4.870;2023-08-08T09:22:38;101537.22;;;24.20;49.43
69245;BME280;56357;52.304;4.870;2023-08-08T09:25:06;101522.72;;;24.40;48.22
69245;BME280;56357;52.304;4.870;2023-08-08T09:27:33;101543.16;;;23.76;49.79
69245;BME280;56357;52.304;4.870;2023-08-08T09:30:00;101527.81;;;23.35;50.46
69245;BME280;56357;52.304;4.870;2023-08-08T09:32:31;101536.09;;;22.98;50.63
69245;BME280;56357;52.304;4.870;2023-08-08T09:34:58;101533.22;;;22.74;52.03
69245;BME280;56357;52.304;4.870;2023-08-08T09:37:26;101528.38;;;22.74;52.45
69245;BME280;56357;52.304;4.870;2023-08-08T09:40:01;101535.69;;;22.81;51.85
69245;BME280;56357;52.304;4.870;2023-08-08T09:42:29;101542.63;;;22.64;52.40
69245;BME280;56357;52.304;4.870;2023-08-08T09:44:58;101535.50;;;22.67;53.13
69245;BME280;56357;52.304;4.870;2023-08-08T09:47:25;101533.75;;;22.76;53.14
69245;BME280;56357;52.304;4.870;2023-08-08T09:49:58;101545.09;;;22.71;53.61
69245;BME280;56357;52.304;4.870;2023-08-08T09:52:27;101542.31;;;22.66;55.29
69245;BME280;56357;52.304;4.870;2023-08-08T09:54:55;101546.91;;;22.57;54.81
69245;BME280;56357;52.304;4.870;2023-08-08T09:57:23;101550.28;;;22.54;55.58
69245;BME280;56357;52.304;4.870;2023-08-08T09:59:51;101550.56;;;22.52;54.94
69245;BME280;56357;52.304;4.870;2023-08-08T10:02:18;101554.81;;;22.55;54.00
69245;BME280;56357;52.304;4.870;2023-08-08T10:04:45;101543.56;;;22.45;56.22
69245;BME280;56357;52.304;4.870;2023-08-08T10:07:12;101541.31;;;22.42;56.40
69245;BME280;56357;52.304;4.870;2023-08-08T10:09:39;101542.63;;;22.59;54.35
69245;BME280;56357;52.304;4.870;2023-08-08T10:12:06;101547.09;;;22.65;55.66
69245;BME280;56357;52.304;4.870;2023-08-08T10:14:36;101550.78;;;22.66;54.84
69245;BME280;56357;52.304;4.870;2023-08-08T10:17:04;101549.97;;;22.55;54.40
69245;BME280;56357;52.304;4.870;2023-08-08T10:19:31;101555.28;;;22.67;54.26
69245;BME280;56357;52.304;4.870;2023-08-08T10:21:59;101543.97;;;22.67;52.52
69245;BME280;56357;52.304;4.870;2023-08-08T10:24:37;101542.25;;;22.71;53.20
69245;BME280;56357;52.304;4.870;2023-08-08T10:27:04;101529.06;;;22.66;53.58
69245;BME280;56357;52.304;4.870;2023-08-08T10:29:33;101515.50;;;22.63;53.67
69245;BME280;56357;52.304;4.870;2023-08-08T10:32:04;101529.06;;;22.66;52.69
69245;BME280;56357;52.304;4.870;2023-08-08T10:34:44;101535.44;;;22.77;52.53
69245;BME280;56357;52.304;4.870;2023-08-08T10:37:13;101524.19;;;22.72;53.35
69245;BME280;56357;52.304;4.870;2023-08-08T10:39:59;101534.03;;;22.74;53.12
69245;BME280;56357;52.304;4.870;2023-08-08T10:42:30;101535.97;;;22.79;53.38
69245;BME280;56357;52.304;4.870;2023-08-08T10:44:59;101525.28;;;22.76;52.73
69245;BME280;56357;52.304;4.870;2023-08-08T10:47:31;101531.75;;;22.77;52.26
69245;BME280;56357;52.304;4.870;2023-08-08T10:50:22;101541.69;;;22.74;53.48
69245;BME280;56357;52.304;4.870;2023-08-08T10:55:22;101541.63;;;22.79;53.47
69245;BME280;56357;52.304;4.870;2023-08-08T11:00:33;101543.28;;;22.85;52.09
69245;BME280;56357;52.304;4.870;2023-08-08T11:03:01;101540.78;;;22.79;52.70
69245;BME280;56357;52.304;4.870;2023-08-08T11:05:30;101535.19;;;22.73;52.57
69245;BME280;56357;52.304;4.870;2023-08-08T11:07:58;101540.03;;;22.68;52.37
69245;BME280;56357;52.304;4.870;2023-08-08T11:10:25;101544.59;;;22.64;52.26
69245;BME280;56357;52.304;4.870;2023-08-08T11:13:03;101552.44;;;22.72;53.22
69245;BME280;56357;52.304;4.870;2023-08-08T11:15:32;101563.97;;;22.76;52.73
69245;BME280;56357;52.304;4.870;2023-08-08T11:18:00;101548.03;;;22.61;53.38
69245;BME280;56357;52.304;4.870;2023-08-08T11:20:31;101541.06;;;22.82;52.21
69245;BME280;56357;52.304;4.870;2023-08-08T11:22:59;101550.09;;;22.79;52.69
69245;BME280;56357;52.304;4.870;2023-08-08T11:25:26;101558.59;;;22.79;52.14
69245;BME280;56357;52.304;4.870;2023-08-08T11:27:54;101541.00;;;22.87;52.75
69245;BME280;56357;52.304;4.870;2023-08-08T11:30:22;101537.63;;;22.85;52.17
69245;BME280;56357;52.304;4.870;2023-08-08T11:32:49;101544.69;;;22.83;53.16
69245;BME280;56357;52.304;4.870;2023-08-08T11:35:17;101549.22;;;22.84;52.11
69245;BME280;56357;52.304;4.870;2023-08-08T11:37:45;101553.53;;;22.76;52.18
69245;BME280;56357;52.304;4.870;2023-08-08T11:40:13;101541.13;;;22.72;51.92
69245;BME280;56357;52.304;4.870;2023-08-08T11:42:41;101544.50;;;22.74;52.72
69245;BME280;56357;52.304;4.870;2023-08-08T11:45:11;101543.28;;;22.85;52.09
69245;BME280;56357;52.304;4.870;2023-08-08T11:47:39;101550.56;;;22.91;52.60
69245;BME280;56357;52.304;4.870;2023-08-08T11:50:08;101551.16;;;22.88;51.85
69245;BME280;56357;52.304;4.870;2023-08-08T11:52:36;101533.38;;;22.88;51.31
69245;BME280;56357;52.304;4.870;2023-08-08T11:55:06;101539.59;;;22.85;51.16
69245;BME280;56357;52.304;4.870;2023-08-08T11:57:35;101545.00;;;22.81;51.74
69245;BME280;56357;52.304;4.870;2023-08-08T12:00:07;101537.94;;;22.84;52.11
69245;BME280;56357;52.304;4.870;2023-08-08T12:02:38;101538.78;;;22.84;51.44
69245;BME280;56357;52.304;4.870;2023-08-08T12:05:09;101534.47;;;22.92;52.46
69245;BME280;56357;52.304;4.870;2023-08-08T12:07:37;101546.59;;;22.92;51.54
69245;BME280;56357;52.304;4.870;2023-08-08T12:10:06;101540.38;;;22.95;51.39
69245;BME280;56357;52.304;4.870;2023-08-08T12:12:39;101545.06;;;22.76;51.84
69245;BME280;56357;52.304;4.870;2023-08-08T12:15:06;101536.47;;;22.86;52.05
69245;BME280;56357;52.304;4.870;2023-08-08T12:17:34;101541.06;;;22.82;52.36
69245;BME280;56357;52.304;4.870;2023-08-08T12:20:03;101536.06;;;22.69;51.96
69245;BME280;56357;52.304;4.870;2023-08-08T12:22:30;101538.72;;;22.89;51.72
69245;BME280;56357;52.304;4.870;2023-08-08T12:24:57;101542.78;;;22.78;52.27
69245;BME280;56357;52.304;4.870;2023-08-08T12:27:23;101546.88;;;22.62;51.68
69245;BME280;56357;52.304;4.870;2023-08-08T12:29:50;101547.91;;;22.71;52.10
69245;BME280;56357;52.304;4.870;2023-08-08T12:32:20;101537.13;;;22.78;51.35
69245;BME280;56357;52.304;4.870;2023-08-08T12:34:48;101534.03;;;22.74;51.36
69245;BME280;56357;52.304;4.870;2023-08-08T12:37:15;101538.69;;;22.60;51.75
69245;BME280;56357;52.304;4.870;2023-08-08T12:39:42;101542.81;;;22.73;52.62
69245;BME280;56357;52.304;4.870;2023-08-08T12:42:09;101542.56;;;22.69;51.99
69245;BME280;56357;52.304;4.870;2023-08-08T12:44:36;101541.63;;;22.79;52.05
69245;BME280;56357;52.304;4.870;2023-08-08T12:47:03;101544.03;;;22.62;51.31
69245;BME280;56357;52.304;4.870;2023-08-08T12:49:29;101555.03;;;22.63;52.72
69245;BME280;56357;52.304;4.870;2023-08-08T12:51:55;101549.09;;;22.65;51.54
69245;BME280;56357;52.304;4.870;2023-08-08T12:54:22;101551.91;;;22.65;51.84
69245;BME280;56357;52.304;4.870;2023-08-08T12:56:48;101545.34;;;22.74;51.92